x

West Gulf - 207 Nm East Of Brownsville, Tx (42002) Wave Buoy

12:50pm - Fri 24th Feb 2017 All times are CST. -6 hours from GMT.

  • Sig Wave height 4.9ft
  • Swell Direction
  • Peak Period 6s
  • Average Period 5s
  • Wind
    18mph, 22mph gusts
  • Sea Temp 74°f
  • Air Temp 74°f
  • Sea Pressure 1008mb
  • West Gulf - 207 Nm East Of Brownsville, Tx
  • West Gulf - 207 Nm East Of Brownsville, Tx

More Historic Weather Station data

Upgrade to MSW Pro to gain access to the past 30 days of data for over 8000 Wavebouys and Weather Stations around the globe.

Join Pro

Comparision Forecast

View Surf forecast
   
Fri 02/24 12:50pm 5ft 6s 5s 18 22 mph 1008mb 74f 74f
11:50am 5ft 6s 5s 20 25 mph 1007.5mb 74f 74f
10:50am 5ft 6s 5s 18 22 mph 1007.9mb 74f 74f
9:50am 5.5ft 6s 5s 18 22 mph 1008.3mb 73f 74f
8:50am 5ft 6s 5s 20 22 mph 1007.8mb 73f 74f
7:50am 5ft 6s 5s 20 25 mph 1007mb 73f 74f
6:50am 5ft 6s 5s 20 22 mph 1007mb 73f 73f
5:50am 5ft 6s 5s 20 22 mph 1006.9mb 73f 73f
4:50am 4.5ft 6s 5s 18 20 mph 1006.6mb 73f 73f
3:50am 4.5ft 5s 5s 20 25 mph 1005.9mb 73f 73f
2:50am 4.5ft 5s 4s 22 27 mph 1005.6mb 73f 73f
1:50am 4ft 5s 4s 20 25 mph 1006.2mb 73f 73f
12:50am 3.5ft 5s 4s 18 22 mph 1006.9mb 73f 73f
Thu 02/23 11:50pm 3.5ft 4s 4s 20 22 mph 1007.3mb 73f 73f
10:50pm 2.5ft 4s 4s 18 22 mph 1007.5mb 73f 73f
9:50pm 3ft 4s 4s 18 20 mph 1007.6mb 74f 73f
8:50pm 2.5ft 4s 4s 18 20 mph 1007.3mb 74f 73f
7:50pm 2.5ft 4s 4s 18 20 mph 1006.8mb 74f 73f
6:50pm 2ft 3s 3s 16 20 mph 1006.2mb 74f 73f
5:50pm 1.6ft 5s 3s 16
mph
1006.4mb 74f 73f
4:50pm 1.6ft 5s 4s 13
mph
1006.5mb 74f 74f
3:50pm 1.6ft 5s 4s 11 13 mph 1006.6mb 74f 73f
2:50pm 1.6ft 5s 4s 11 13 mph 1007.1mb 74f 73f
1:50pm 1.6ft 5s 4s 11 13 mph 1008mb 74f 73f
12:50pm 1.6ft 6s 4s 11 13 mph 1009.1mb 74f 73f
11:50am 1.6ft 5s 4s 11 13 mph 1009.7mb 74f 73f
10:50am 2ft 5s 5s 11
mph
1010.4mb 74f 73f
9:50am 1.6ft 5s 5s 9 13 mph 1010.4mb 73f 72f
8:50am 2ft 5s 5s 9 11 mph 1010.2mb 73f 72f
7:50am 1.6ft 5s 5s 9 11 mph 1009.8mb 73f 72f
6:50am 1.6ft 5s 5s 9 11 mph 1009.3mb 74f 71f
5:50am 1.6ft 5s 5s 7 9 mph 1008.9mb 74f 71f
4:50am 1.3ft 5s 4s 7 9 mph 1008.6mb 74f 71f
3:50am 1.3ft 6s 4s 7 11 mph 1008.5mb 74f 71f
2:50am 1.3ft 4s 4s 7
mph
1008.9mb 74f 71f
1:50am 1.3ft 4s 4s 4 7 mph 1009.5mb 74f 71f
12:50am 1.6ft 4s 4s 7 9 mph 1009.9mb 74f 71f
Wed 02/22 11:50pm 1.6ft 4s 4s 7 9 mph 1010.4mb 74f 72f
10:50pm 2ft 5s 4s 7
mph
1010.8mb 74f 72f
9:50pm 2ft 5s 4s 4 7 mph 1011.3mb 74f 72f
8:50pm 2.5ft 4s 4s 7 9 mph 1011.5mb 74f 72f
7:50pm 2.5ft 5s 4s 9 11 mph 1011.3mb 74f 72f
6:50pm 2.5ft 5s 4s 9 11 mph 1010.9mb 74f 73f
5:50pm 2.5ft 5s 4s 11 13 mph 1010.9mb 74f 73f
4:50pm 2.5ft 5s 4s 11 13 mph 1010.8mb 74f 73f
3:50pm 2.5ft 5s 4s 11 16 mph 1010.6mb 74f 73f
2:50pm 2.5ft 5s 4s 13 16 mph 1011mb 74f 73f
1:50pm 2.5ft 5s 4s 13 16 mph 1011.6mb 74f 73f
12:50pm 2.5ft 5s 4s 13 16 mph 1012.5mb 74f 73f
11:50am 2.5ft 6s 4s 13 16 mph 1013.1mb 73f 74f
10:50am 3ft 6s 4s 13 16 mph 1013.7mb 73f 74f
9:50am 3.5ft 5s 4s 13 16 mph 1013.6mb 74f 73f
8:50am 3.5ft 5s 4s 16 18 mph 1013.3mb 74f 73f
7:50am 3.5ft 6s 5s 16 18 mph 1012.8mb 74f 73f
6:50am 3.5ft 6s 5s 18 20 mph 1012.2mb 74f 73f
4:50am 4ft 7s 5s 16 18 mph 1012.2mb 74f 73f
3:50am 4.5ft 7s 5s 16 20 mph 1012.1mb 75f 74f
2:50am 4.5ft 6s 5s 16 20 mph 1012.2mb 75f 73f
1:50am 5ft 6s 5s 16 20 mph 1012.6mb 75f 74f
12:50am 5ft 7s 5s 16 20 mph 1013mb 75f 74f
Tue 02/21 11:50pm 5.5ft 7s 5s 20 22 mph 1013.1mb 75f 74f
10:50pm 6ft 7s 5s 20 25 mph 1013.7mb 75f 74f
9:50pm 6ft 7s 5s 22 25 mph 1013.6mb 74f 74f
8:50pm 7ft 7s 5s 25 29 mph 1013.4mb 74f 74f
7:50pm 7ft 7s 5s 25 29 mph 1013.3mb 74f 74f
6:50pm 7ft 6s 5s 25 29 mph 1012.7mb 74f 73f
5:50pm 7ft 6s 5s 31 38 mph 1011.8mb 74f 73f
4:50pm 6ft 6s 5s 27 31 mph 1011.7mb 74f 73f
3:50pm 5ft 6s 5s 22 27 mph 1012mb 74f 74f
2:50pm 4.5ft 5s 4s 22 27 mph 1012.7mb 74f 74f
1:50pm 4ft 4s 4s 22 29 mph 1013.1mb 74f 74f
12:50pm 3.5ft 7s 4s 22 27 mph 1013.9mb 74f 74f
11:50am 3ft 7s 4s 20 25 mph 1015.4mb 74f 73f
10:50am 3ft 7s 4s 20 25 mph 1016.6mb 74f 71f
9:50am 3ft 7s 5s 18 22 mph 1017.2mb 74f 71f
8:50am 3ft 7s 5s 16 18 mph 1016.9mb 74f 70f
7:50am 3ft 6s 5s 11 13 mph 1016.4mb 74f 69f
6:50am 3.5ft 7s 6s 9 11 mph 1016.3mb 74f 69f
5:50am 3.5ft 7s 6s 4 7 mph 1016.1mb 74f 68f
4:50am 3.5ft 8s 5s 7 9 mph 1016.2mb 75f 68f
3:50am 4ft 7s 6s 7
mph
1016.3mb 75f 67f
2:50am 4ft 7s 5s 4 7 mph 1016.1mb 75f 67f
1:50am 4.5ft 7s 6s 7 9 mph 1016.9mb 75f 67f
12:50am 5ft 7s 6s 4 7 mph 1017.2mb 75f 67f
Mon 02/20 11:50pm 5ft 6s 6s 7 9 mph 1016.7mb 75f 66f
10:50pm 5.5ft 7s 5s 11 16 mph 1017.4mb 75f 66f
9:50pm 6ft 7s 5s 9 13 mph 1018.9mb 75f 69f
8:50pm 6ft 7s 5s 16 20 mph 1016.6mb 75f 69f
7:50pm 6ft 7s 5s 20 25 mph 1015.1mb 75f 71f